Time;durP1;ratioP1;P1;durP2;ratioP2;P2;SDS_P1;SDS_P2;PMS_P1;PMS_P2;Temp;Humidity;BMP_temperature;BMP_pressure;BME280_temperature;BME280_humidity;BME280_pressure;Samples;Min_cycle;Max_cycle;Signal;HPM_P1;HPM_P2
2023/09/22 00:02:09;;;;;;;5.60;5.03;;;19.70;99.90;;;;;;5065278;28;20216;-70
2023/09/22 00:04:35;;;;;;;5.90;4.50;;;19.70;99.90;;;;;;5069270;28;20677;-69
2023/09/22 00:07:01;;;;;;;7.20;5.87;;;19.60;99.90;;;;;;5063208;28;20187;-69
2023/09/22 00:09:27;;;;;;;6.70;4.60;;;19.60;99.90;;;;;;5054617;28;20437;-70
2023/09/22 00:11:52;;;;;;;5.63;5.13;;;19.60;99.90;;;;;;5052831;28;20954;-70
2023/09/22 00:14:18;;;;;;;6.73;4.40;;;19.60;99.90;;;;;;5052911;28;20172;-70
2023/09/22 00:16:44;;;;;;;5.40;4.43;;;19.70;99.90;;;;;;5053158;28;20183;-70
2023/09/22 00:19:09;;;;;;;7.00;5.07;;;19.70;99.90;;;;;;5052895;28;20775;-70
2023/09/22 00:21:35;;;;;;;4.97;4.43;;;19.60;99.90;;;;;;5052856;28;20263;-71
2023/09/22 00:24:04;;;;;;;9.20;4.50;;;19.80;99.90;;;;;;5049675;28;20220;-70
2023/09/22 00:26:29;;;;;;;5.27;4.37;;;19.80;99.90;;;;;;5046840;28;20249;-71
2023/09/22 00:28:57;;;;;;;5.83;5.27;;;19.80;99.90;;;;;;5051887;28;20977;-70
2023/09/22 00:31:22;;;;;;;5.77;4.73;;;19.70;99.90;;;;;;5052971;28;20180;-70
2023/09/22 00:33:48;;;;;;;5.67;4.53;;;19.70;99.90;;;;;;5047424;28;20795;-71
2023/09/22 00:36:14;;;;;;;4.23;3.83;;;19.70;99.90;;;;;;5051447;28;20218;-70
2023/09/22 00:38:41;;;;;;;6.03;4.20;;;19.70;99.90;;;;;;5052998;28;20202;-69
2023/09/22 00:41:07;;;;;;;5.10;4.70;;;19.60;99.90;;;;;;5066500;28;20490;-71
2023/09/22 00:43:32;;;;;;;5.30;4.60;;;19.60;99.90;;;;;;5052251;28;20489;-70
2023/09/22 00:45:59;;;;;;;5.13;4.73;;;19.50;99.90;;;;;;5055424;28;20176;-70
2023/09/22 00:48:30;;;;;;;5.67;5.13;;;19.50;99.90;;;;;;5056048;28;20192;-69
2023/09/22 00:50:56;;;;;;;6.90;5.33;;;19.40;99.90;;;;;;5046546;28;20475;-71
2023/09/22 00:53:27;;;;;;;6.03;5.23;;;19.40;99.90;;;;;;5058685;28;20967;-70
2023/09/22 00:55:53;;;;;;;8.00;5.00;;;19.40;99.90;;;;;;5055011;28;20421;-70
2023/09/22 00:58:19;;;;;;;5.53;5.13;;;19.40;99.90;;;;;;5050910;28;20438;-71
2023/09/22 01:00:49;;;;;;;6.87;5.00;;;19.40;99.90;;;;;;5055564;28;20462;-71
2023/09/22 01:03:18;;;;;;;7.90;5.40;;;19.30;99.90;;;;;;5072681;28;20466;-70
2023/09/22 01:05:45;;;;;;;7.20;5.10;;;19.30;99.90;;;;;;5071968;28;20515;-68
2023/09/22 01:08:12;;;;;;;7.90;6.50;;;19.30;99.90;;;;;;5072166;28;20478;-70
2023/09/22 01:10:38;;;;;;;6.17;4.97;;;19.30;99.90;;;;;;5061266;28;20477;-70
2023/09/22 01:13:05;;;;;;;8.03;5.60;;;19.30;99.90;;;;;;5052131;28;20411;-69
2023/09/22 01:15:35;;;;;;;6.43;5.53;;;19.30;99.90;;;;;;5052276;28;20438;-71
2023/09/22 01:18:01;;;;;;;6.00;5.37;;;19.30;99.90;;;;;;5051773;28;20439;-70
2023/09/22 01:20:27;;;;;;;7.13;5.90;;;19.20;99.90;;;;;;5051999;28;20520;-70
2023/09/22 01:22:52;;;;;;;7.43;4.83;;;19.10;99.90;;;;;;5051659;28;20412;-69
2023/09/22 01:25:22;;;;;;;8.60;6.03;;;19.10;99.90;;;;;;5051946;28;20201;-72
2023/09/22 01:27:47;;;;;;;8.70;5.80;;;19.10;99.90;;;;;;5050563;28;20222;-72
2023/09/22 01:30:14;;;;;;;8.87;5.40;;;19.00;99.90;;;;;;5051951;28;20419;-72
2023/09/22 01:32:40;;;;;;;6.77;5.77;;;19.00;99.90;;;;;;5054643;28;20411;-72
2023/09/22 01:35:10;;;;;;;7.30;6.40;;;18.90;99.90;;;;;;5070456;28;20408;-71
2023/09/22 01:37:49;;;;;;;6.60;5.90;;;18.90;99.90;;;;;;5072709;28;20179;-71
2023/09/22 01:40:17;;;;;;;11.07;6.80;;;18.90;99.90;;;;;;5072820;28;20462;-72
2023/09/22 01:42:43;;;;;;;9.40;7.47;;;18.90;99.90;;;;;;5072183;28;20409;-71
2023/09/22 01:45:10;;;;;;;9.10;7.63;;;18.80;99.90;;;;;;5052357;28;20414;-72
2023/09/22 01:47:36;;;;;;;9.57;5.97;;;18.80;99.90;;;;;;5051278;28;20417;-72
2023/09/22 01:50:02;;;;;;;7.30;6.03;;;18.80;99.90;;;;;;5051136;28;20959;-72
2023/09/22 01:52:28;;;;;;;6.60;6.10;;;18.80;99.90;;;;;;5050991;28;20408;-72
2023/09/22 01:54:54;;;;;;;8.43;6.23;;;18.80;99.90;;;;;;5051385;28;20418;-72
2023/09/22 01:57:20;;;;;;;11.63;5.93;;;18.80;99.90;;;;;;5051672;28;20256;-73
2023/09/22 01:59:46;;;;;;;7.10;6.40;;;18.80;99.90;;;;;;5051247;28;20971;-73
2023/09/22 02:02:13;;;;;;;7.60;6.53;;;18.80;99.90;;;;;;5066486;28;20668;-70
2023/09/22 02:04:39;;;;;;;9.67;6.90;;;18.80;99.90;;;;;;5071141;28;20417;-72
2023/09/22 02:07:06;;;;;;;8.10;7.30;;;18.80;99.90;;;;;;5071126;28;20461;-71
2023/09/22 02:09:31;;;;;;;10.90;7.03;;;18.80;99.90;;;;;;5070687;28;20237;-72
2023/09/22 02:11:57;;;;;;;7.87;7.17;;;18.80;99.90;;;;;;5071145;28;20441;-73
2023/09/22 02:14:23;;;;;;;10.13;6.83;;;18.80;99.90;;;;;;5070732;28;20178;-73
2023/09/22 02:16:49;;;;;;;8.33;7.63;;;18.80;99.90;;;;;;5071445;28;20635;-72
2023/09/22 02:19:14;;;;;;;8.33;7.43;;;18.80;99.90;;;;;;5070935;28;20463;-71
2023/09/22 02:21:40;;;;;;;8.33;7.40;;;18.90;99.90;;;;;;5070283;28;20454;-72
2023/09/22 02:24:06;;;;;;;8.03;7.23;;;18.90;99.90;;;;;;5070789;28;20640;-73
2023/09/22 02:26:32;;;;;;;8.00;7.20;;;18.80;99.90;;;;;;5070695;28;20886;-72
2023/09/22 02:28:57;;;;;;;7.70;6.90;;;18.90;99.90;;;;;;5070628;28;20529;-73
2023/09/22 02:31:26;;;;;;;8.37;7.60;;;18.90;99.90;;;;;;5070732;28;20549;-71
2023/09/22 02:33:52;;;;;;;7.67;6.87;;;18.90;99.90;;;;;;5069927;28;20167;-73
2023/09/22 02:36:18;;;;;;;8.57;6.60;;;18.90;99.90;;;;;;5069214;28;20938;-73
2023/09/22 02:38:43;;;;;;;8.97;6.97;;;19.00;99.90;;;;;;5070358;28;20627;-72
2023/09/22 02:41:11;;;;;;;6.83;6.23;;;19.00;99.90;;;;;;5070601;28;20211;-72
2023/09/22 02:43:38;;;;;;;9.63;7.00;;;19.00;99.90;;;;;;5063505;28;20267;-72
2023/09/22 02:46:04;;;;;;;7.80;7.00;;;19.00;99.90;;;;;;5050578;28;20443;-72
2023/09/22 02:48:29;;;;;;;7.13;6.53;;;19.00;99.90;;;;;;5050333;28;20436;-72
2023/09/22 02:50:55;;;;;;;6.97;6.27;;;19.10;99.90;;;;;;5052557;28;20203;-71
2023/09/22 02:53:21;;;;;;;7.97;6.77;;;19.10;99.90;;;;;;5050722;28;20171;-72
2023/09/22 02:55:46;;;;;;;6.33;5.80;;;19.00;99.90;;;;;;5050236;28;20551;-72
2023/09/22 02:58:12;;;;;;;6.67;6.07;;;19.00;99.90;;;;;;5050399;28;20203;-72
2023/09/22 03:00:44;;;;;;;6.50;5.07;;;19.00;99.90;;;;;;5050994;28;20202;-71
2023/09/22 03:03:14;;;;;;;6.60;4.80;;;19.00;99.90;;;;;;5050287;28;20402;-72
2023/09/22 03:05:40;;;;;;;9.83;5.80;;;19.10;99.90;;;;;;5048894;28;20843;-72
2023/09/22 03:08:05;;;;;;;6.70;5.73;;;19.10;99.90;;;;;;5049969;28;20475;-72
2023/09/22 03:10:32;;;;;;;10.93;6.53;;;19.10;99.90;;;;;;5056690;28;20179;-72
2023/09/22 03:12:57;;;;;;;7.47;6.30;;;19.10;99.90;;;;;;5050045;28;20206;-72
2023/09/22 03:15:24;;;;;;;6.40;5.90;;;19.10;99.90;;;;;;5050344;28;20446;-72
2023/09/22 03:17:49;;;;;;;8.00;7.10;;;19.10;99.90;;;;;;5049938;28;20163;-72
2023/09/22 03:20:17;;;;;;;8.50;6.13;;;19.10;99.90;;;;;;5049954;28;20427;-72
2023/09/22 03:22:43;;;;;;;6.87;6.20;;;19.10;99.90;;;;;;5049904;28;20262;-72
2023/09/22 03:25:10;;;;;;;6.03;5.53;;;19.10;99.90;;;;;;5050011;28;20873;-72
2023/09/22 03:27:36;;;;;;;6.13;5.53;;;19.10;99.90;;;;;;5049858;28;20598;-73
2023/09/22 03:30:06;;;;;;;5.50;5.10;;;19.10;99.90;;;;;;5050215;28;20454;-71
2023/09/22 03:32:32;;;;;;;6.10;5.50;;;19.10;99.90;;;;;;5067066;28;20443;-72
2023/09/22 03:34:58;;;;;;;7.37;6.70;;;19.10;99.90;;;;;;5070333;28;20769;-72
2023/09/22 03:37:29;;;;;;;4.13;3.73;;;19.10;99.90;;;;;;5070142;28;20877;-74
2023/09/22 03:39:55;;;;;;;4.00;3.30;;;19.10;99.90;;;;;;5052147;28;20193;-71
2023/09/22 03:42:21;;;;;;;2.03;1.83;;;19.00;99.90;;;;;;5049477;28;20975;-73
2023/09/22 03:44:47;;;;;;;2.80;2.20;;;18.80;99.90;;;;;;5050268;28;20422;-73
2023/09/22 03:47:12;;;;;;;1.93;1.83;;;18.90;99.90;;;;;;5053769;28;20250;-72
2023/09/22 03:49:38;;;;;;;4.13;1.43;;;18.70;99.90;;;;;;5053796;28;20574;-73
2023/09/22 03:52:04;;;;;;;1.80;1.40;;;18.60;99.90;;;;;;5053787;28;20178;-73
2023/09/22 03:54:30;;;;;;;2.93;1.80;;;18.60;99.90;;;;;;5053479;28;20326;-72
2023/09/22 03:56:56;;;;;;;2.30;2.10;;;18.50;99.90;;;;;;5054152;28;20590;-72
2023/09/22 03:59:22;;;;;;;3.07;2.03;;;18.50;99.90;;;;;;5053671;28;20198;-73
2023/09/22 04:01:47;;;;;;;3.60;2.07;;;18.40;99.90;;;;;;5053421;28;21018;-73
2023/09/22 04:04:14;;;;;;;1.87;1.77;;;18.30;99.90;;;;;;5053687;28;20496;-72
2023/09/22 04:06:40;;;;;;;2.07;1.70;;;18.40;99.90;;;;;;5053546;28;20171;-73
2023/09/22 04:09:07;;;;;;;1.87;1.70;;;18.20;99.90;;;;;;5053472;28;20483;-72
2023/09/22 04:11:34;;;;;;;1.90;1.70;;;18.00;99.90;;;;;;5053427;28;20428;-72
2023/09/22 04:13:59;;;;;;;2.27;1.80;;;18.00;99.90;;;;;;5053355;28;20413;-73
2023/09/22 04:16:25;;;;;;;2.33;2.13;;;18.00;99.90;;;;;;5053235;28;20416;-70
2023/09/22 04:18:54;;;;;;;2.03;1.73;;;18.00;99.90;;;;;;5056079;28;20289;-72
2023/09/22 04:21:23;;;;;;;2.17;1.80;;;18.00;99.90;;;;;;5067907;28;20308;-73
2023/09/22 04:23:58;;;;;;;2.30;2.10;;;18.00;99.90;;;;;;5056529;28;20413;-73
2023/09/22 04:26:29;;;;;;;2.40;1.80;;;17.70;99.90;;;;;;5061040;28;20540;-73
2023/09/22 04:28:59;;;;;;;1.90;1.80;;;17.70;99.90;;;;;;5073307;28;20588;-74
2023/09/22 04:31:25;;;;;;;3.80;2.40;;;17.70;99.90;;;;;;5057213;28;20423;-72
2023/09/22 04:33:54;;;;;;;2.00;1.80;;;17.70;99.90;;;;;;5053129;28;20749;-73
2023/09/22 04:36:23;;;;;;;2.77;2.57;;;17.60;99.90;;;;;;5051211;28;20468;-72
2023/09/22 04:38:51;;;;;;;2.80;2.23;;;17.60;99.90;;;;;;5055626;28;20452;-72
2023/09/22 04:41:20;;;;;;;4.80;2.20;;;17.60;99.90;;;;;;5067862;28;20829;-73
2023/09/22 04:43:46;;;;;;;2.60;2.40;;;17.60;99.90;;;;;;5054571;28;20478;-71
2023/09/22 04:46:12;;;;;;;2.80;2.03;;;17.60;99.90;;;;;;5053964;28;20412;-71
2023/09/22 04:48:39;;;;;;;2.50;2.30;;;17.50;99.90;;;;;;5053366;28;20494;-73
2023/09/22 04:51:05;;;;;;;3.13;2.47;;;17.40;99.90;;;;;;5052950;28;20508;-73
2023/09/22 04:53:32;;;;;;;6.43;2.70;;;17.30;99.90;;;;;;5053036;28;20502;-72
2023/09/22 04:56:04;;;;;;;2.37;2.17;;;17.30;99.90;;;;;;5055952;28;20453;-72
2023/09/22 04:58:31;;;;;;;2.80;2.50;;;17.30;99.90;;;;;;5072627;28;20492;-73
2023/09/22 05:00:58;;;;;;;5.33;2.13;;;17.30;99.90;;;;;;5052870;28;20546;-75
2023/09/22 05:03:25;;;;;;;2.93;2.53;;;17.30;99.90;;;;;;5052792;28;20416;-73
2023/09/22 05:05:54;;;;;;;3.87;2.17;;;17.20;99.90;;;;;;5054658;28;20417;-72
2023/09/22 05:08:20;;;;;;;3.20;2.17;;;17.20;99.90;;;;;;5052860;28;20514;-72
2023/09/22 05:10:48;;;;;;;5.30;2.50;;;17.20;99.90;;;;;;5052092;28;20419;-72
2023/09/22 05:13:18;;;;;;;3.70;2.27;;;17.20;99.90;;;;;;5053087;28;20436;-70
2023/09/22 05:15:43;;;;;;;6.23;2.23;;;17.20;99.90;;;;;;5052021;28;20845;-71
2023/09/22 05:18:15;;;;;;;3.03;2.37;;;17.20;99.90;;;;;;5051775;28;20535;-71
2023/09/22 05:20:41;;;;;;;3.27;2.73;;;17.20;99.90;;;;;;5051532;28;21740;-70
2023/09/22 05:23:08;;;;;;;3.60;2.30;;;17.20;99.90;;;;;;5049969;28;20436;-69
2023/09/22 05:25:40;;;;;;;3.57;1.87;;;17.10;99.90;;;;;;5053883;28;20452;-72
2023/09/22 05:28:08;;;;;;;2.60;2.10;;;17.20;99.90;;;;;;5051589;28;20468;-71
2023/09/22 05:30:37;;;;;;;2.20;2.00;;;17.20;99.90;;;;;;5048342;28;20459;-73
2023/09/22 05:33:06;;;;;;;6.10;2.90;;;17.20;99.90;;;;;;5051616;28;20788;-71
2023/09/22 05:35:32;;;;;;;1.73;1.63;;;17.10;99.90;;;;;;5051594;28;20420;-72
2023/09/22 05:37:58;;;;;;;7.83;5.97;;;17.10;99.90;;;;;;5053013;28;20504;-73
2023/09/22 05:40:26;;;;;;;3.43;1.90;;;17.20;99.90;;;;;;5050361;28;20416;-72
2023/09/22 05:42:51;;;;;;;3.93;2.47;;;17.20;99.90;;;;;;5054808;28;20919;-73
2023/09/22 05:45:17;;;;;;;3.73;2.50;;;17.20;99.90;;;;;;5057398;28;20482;-71
2023/09/22 05:47:42;;;;;;;4.77;3.83;;;17.20;99.90;;;;;;5050416;28;20181;-71
2023/09/22 05:50:10;;;;;;;2.50;2.30;;;17.20;99.90;;;;;;5050393;28;20162;-72
2023/09/22 05:52:37;;;;;;;5.30;3.40;;;17.20;99.90;;;;;;5050796;28;20228;-74
2023/09/22 05:55:04;;;;;;;6.20;4.97;;;17.20;99.90;;;;;;5050504;28;20419;-69
2023/09/22 05:57:30;;;;;;;4.20;3.80;;;17.30;99.90;;;;;;5050534;28;20782;-71
2023/09/22 05:59:57;;;;;;;2.87;2.40;;;17.30;99.90;;;;;;5048922;28;20432;-72
2023/09/22 06:02:23;;;;;;;3.20;2.40;;;17.30;99.90;;;;;;5050446;28;20303;-72
2023/09/22 06:04:52;;;;;;;3.37;2.23;;;17.30;99.90;;;;;;5050503;28;20434;-72
2023/09/22 06:07:20;;;;;;;2.00;1.90;;;17.30;99.90;;;;;;5046115;28;20410;-72
2023/09/22 06:09:45;;;;;;;3.47;1.70;;;17.20;99.90;;;;;;5048550;28;20435;-71
2023/09/22 06:12:11;;;;;;;2.40;2.20;;;17.40;99.90;;;;;;5052050;28;20414;-69
2023/09/22 06:14:39;;;;;;;3.03;2.13;;;17.40;99.90;;;;;;5050908;28;20228;-70
2023/09/22 06:17:05;;;;;;;2.40;2.03;;;17.30;99.90;;;;;;5052277;28;20417;-71
2023/09/22 06:19:31;;;;;;;3.40;1.90;;;17.30;99.90;;;;;;5051174;28;20453;-68
2023/09/22 06:21:57;;;;;;;2.07;1.87;;;17.30;99.90;;;;;;5050422;28;20456;-68
2023/09/22 06:24:23;;;;;;;2.67;2.10;;;17.30;99.90;;;;;;5050823;28;20635;-69
2023/09/22 06:26:50;;;;;;;2.43;2.23;;;17.40;99.90;;;;;;5050754;28;20426;-69
2023/09/22 06:29:17;;;;;;;2.80;2.20;;;17.40;99.90;;;;;;5050476;28;20218;-69
2023/09/22 06:31:43;;;;;;;4.50;2.20;;;17.50;99.90;;;;;;5050410;28;20440;-69
2023/09/22 06:34:09;;;;;;;3.63;3.07;;;17.50;99.90;;;;;;5050456;28;20425;-69
2023/09/22 06:36:35;;;;;;;2.57;1.97;;;17.50;99.90;;;;;;5050887;28;20418;-68
2023/09/22 06:39:07;;;;;;;3.40;2.23;;;17.40;99.90;;;;;;5042680;28;20569;-68
2023/09/22 06:41:34;;;;;;;4.60;2.83;;;17.40;99.90;;;;;;5058755;28;20460;-69
2023/09/22 06:44:00;;;;;;;3.90;2.10;;;17.50;99.90;;;;;;5063289;28;20512;-72
2023/09/22 06:46:26;;;;;;;2.53;1.90;;;17.60;99.90;;;;;;5057581;28;20411;-69
2023/09/22 06:48:51;;;;;;;2.00;1.67;;;17.60;99.90;;;;;;5052240;28;20895;-69
2023/09/22 06:51:18;;;;;;;2.30;1.60;;;17.70;99.90;;;;;;5049720;28;20194;-69
2023/09/22 06:53:44;;;;;;;3.00;2.47;;;17.60;99.90;;;;;;5050965;28;20179;-69
2023/09/22 06:56:10;;;;;;;7.47;2.47;;;17.70;99.90;;;;;;5050872;28;20443;-68
2023/09/22 06:58:37;;;;;;;2.83;1.90;;;17.70;99.90;;;;;;5050596;28;20442;-69
2023/09/22 07:01:09;;;;;;;2.50;1.97;;;17.70;99.90;;;;;;5062362;28;20452;-69
2023/09/22 07:03:39;;;;;;;2.33;1.70;;;17.90;99.90;;;;;;5070521;28;20491;-69
2023/09/22 07:06:10;;;;;;;4.30;1.97;;;17.90;99.90;;;;;;5070668;28;20496;-69
2023/09/22 07:08:37;;;;;;;2.30;2.10;;;17.90;99.90;;;;;;5060994;28;20491;-70
2023/09/22 07:11:04;;;;;;;2.07;1.87;;;17.80;99.90;;;;;;5070497;28;20926;-69
2023/09/22 07:13:30;;;;;;;2.63;2.27;;;17.90;99.90;;;;;;5070271;28;20508;-70
2023/09/22 07:15:59;;;;;;;3.47;2.43;;;17.90;99.90;;;;;;5059476;28;20534;-68
2023/09/22 07:18:25;;;;;;;3.10;2.37;;;17.90;99.90;;;;;;5052791;28;20215;-71
2023/09/22 07:20:55;;;;;;;2.50;2.20;;;17.90;99.90;;;;;;5055801;28;20538;-68
2023/09/22 07:23:22;;;;;;;6.07;2.53;;;17.90;99.90;;;;;;5062428;28;20419;-67
2023/09/22 07:26:02;;;;;;;2.70;2.07;;;18.00;99.90;;;;;;5055667;28;20475;-68
2023/09/22 07:28:29;;;;;;;3.10;2.00;;;17.90;99.90;;;;;;5059221;28;20434;-68
2023/09/22 07:30:54;;;;;;;3.70;2.23;;;17.90;99.90;;;;;;5064233;28;20422;-69
2023/09/22 07:33:21;;;;;;;3.23;2.50;;;17.90;99.90;;;;;;5068903;28;20417;-69
2023/09/22 07:35:50;;;;;;;2.67;1.80;;;18.00;99.90;;;;;;5049795;28;20343;-69
2023/09/22 07:38:19;;;;;;;4.80;2.13;;;18.00;99.90;;;;;;5058834;28;20434;-68
2023/09/22 07:40:45;;;;;;;2.53;1.90;;;17.90;99.90;;;;;;5060998;28;20913;-68
2023/09/22 07:43:11;;;;;;;2.10;1.47;;;17.90;99.90;;;;;;5053758;28;20414;-69
2023/09/22 07:45:36;;;;;;;2.20;2.00;;;17.90;99.90;;;;;;5070346;28;20413;-69
2023/09/22 07:48:02;;;;;;;2.43;2.03;;;17.80;99.90;;;;;;5036252;28;20451;-73
2023/09/22 07:50:29;;;;;;;4.80;1.93;;;17.90;99.90;;;;;;5044783;28;20212;-69
2023/09/22 07:52:56;;;;;;;4.03;1.73;;;17.70;99.90;;;;;;5053208;28;20411;-69
2023/09/22 07:55:22;;;;;;;2.30;1.47;;;17.70;99.90;;;;;;5053002;28;20764;-70
2023/09/22 07:57:49;;;;;;;1.73;1.50;;;17.70;99.90;;;;;;5053984;28;20551;-71
2023/09/22 08:00:18;;;;;;;2.20;1.60;;;17.90;99.90;;;;;;5053480;28;20228;-70
2023/09/22 08:02:45;;;;;;;2.53;1.80;;;17.80;99.90;;;;;;5052904;28;20427;-72
2023/09/22 08:05:15;;;;;;;3.30;1.80;;;17.70;99.90;;;;;;5052585;28;20776;-69
2023/09/22 08:07:44;;;;;;;2.27;1.77;;;17.80;99.90;;;;;;5054353;28;20519;-69
2023/09/22 08:10:11;;;;;;;1.60;1.50;;;18.00;99.90;;;;;;5052987;28;20419;-69
2023/09/22 08:12:44;;;;;;;3.20;1.70;;;18.00;99.90;;;;;;5052640;28;20910;-68
2023/09/22 08:15:10;;;;;;;3.63;1.50;;;18.00;99.90;;;;;;5044003;28;20921;-69
2023/09/22 08:17:35;;;;;;;3.30;1.90;;;17.90;99.90;;;;;;5057755;28;20431;-69
2023/09/22 08:20:07;;;;;;;2.63;2.20;;;18.00;99.90;;;;;;5052653;28;20541;-69
2023/09/22 08:22:34;;;;;;;2.10;1.90;;;18.20;99.90;;;;;;5052701;28;20216;-70
2023/09/22 08:24:59;;;;;;;2.00;1.70;;;18.10;99.90;;;;;;5056089;28;20426;-70
2023/09/22 08:27:25;;;;;;;3.30;1.97;;;18.10;99.90;;;;;;5052997;28;20479;-69
2023/09/22 08:29:51;;;;;;;2.77;2.03;;;17.90;99.90;;;;;;5068858;22;20228;-75
2023/09/22 08:32:17;;;;;;;3.40;2.07;;;17.90;99.90;;;;;;5024296;28;20552;-74
2023/09/22 08:34:42;;;;;;;3.27;1.87;;;18.10;99.90;;;;;;5028026;28;20264;-74
2023/09/22 08:37:08;;;;;;;2.50;2.17;;;18.20;99.90;;;;;;5032542;28;20542;-73
2023/09/22 08:39:34;;;;;;;3.70;2.10;;;18.20;99.90;;;;;;5027443;28;20236;-76
2023/09/22 08:41:59;;;;;;;2.40;2.20;;;18.20;99.90;;;;;;5033117;28;20267;-75
2023/09/22 08:44:30;;;;;;;2.60;2.40;;;18.30;99.90;;;;;;5033801;28;20258;-74
2023/09/22 08:46:57;;;;;;;4.70;2.10;;;18.10;99.90;;;;;;5023214;28;20427;-74
2023/09/22 08:49:22;;;;;;;3.10;2.20;;;18.10;99.90;;;;;;5030140;28;20795;-74
2023/09/22 08:51:49;;;;;;;3.63;2.37;;;18.10;99.90;;;;;;5024181;28;20437;-73
2023/09/22 08:54:14;;;;;;;2.03;1.83;;;18.20;99.90;;;;;;5033937;28;20180;-74
2023/09/22 08:56:40;;;;;;;3.07;1.80;;;18.00;99.90;;;;;;5032824;28;20412;-73
2023/09/22 08:59:09;;;;;;;2.80;1.90;;;18.00;99.90;;;;;;5032882;28;20318;-74
2023/09/22 09:01:38;;;;;;;4.40;1.67;;;17.90;99.90;;;;;;5033429;28;20528;-74
2023/09/22 09:04:32;;;;;;;2.60;2.10;;;18.00;99.90;;;;;;5032673;28;20462;-74
2023/09/22 09:06:57;;;;;;;2.73;1.90;;;18.00;99.90;;;;;;5026887;28;20414;-73
2023/09/22 09:09:23;;;;;;;4.53;2.13;;;18.00;99.90;;;;;;5030107;28;20415;-73
2023/09/22 09:12:03;;;;;;;2.40;2.20;;;18.00;99.90;;;;;;5031985;28;20626;-74
2023/09/22 09:14:31;;;;;;;3.07;1.90;;;17.90;99.90;;;;;;5028955;28;20185;-73
2023/09/22 09:16:57;;;;;;;2.40;2.20;;;18.00;99.90;;;;;;5033671;28;20932;-74
2023/09/22 09:19:24;;;;;;;2.20;1.90;;;18.00;99.90;;;;;;5040262;28;20513;-74
2023/09/22 09:22:05;;;;;;;2.80;1.63;;;18.10;99.90;;;;;;5027196;28;20211;-74
2023/09/22 09:24:31;;;;;;;4.03;2.53;;;18.00;99.90;;;;;;5044566;28;20775;-74
2023/09/22 09:26:57;;;;;;;1.83;1.73;;;18.00;99.90;;;;;;5026295;28;20428;-74
2023/09/22 09:29:29;;;;;;;3.23;2.10;;;18.00;99.90;;;;;;5036391;28;20804;-73
2023/09/22 09:31:59;;;;;;;2.67;1.50;;;17.90;99.90;;;;;;5036477;28;20219;-73
2023/09/22 09:34:39;;;;;;;2.27;1.70;;;17.80;99.90;;;;;;5032757;28;20782;-74
2023/09/22 09:37:15;;;;;;;2.37;2.17;;;17.70;99.90;;;;;;5033505;28;20411;-74
2023/09/22 09:39:45;;;;;;;2.03;1.70;;;17.80;99.90;;;;;;5032039;28;20421;-75
2023/09/22 09:42:22;;;;;;;2.23;1.60;;;17.70;99.90;;;;;;5025021;28;20446;-75
2023/09/22 09:44:53;;;;;;;2.03;1.83;;;17.70;99.90;;;;;;5031906;28;20418;-75
2023/09/22 09:47:23;;;;;;;2.17;1.97;;;17.70;99.90;;;;;;5033214;28;20410;-74
2023/09/22 09:49:52;;;;;;;2.40;2.20;;;17.60;99.90;;;;;;5033002;28;20430;-73
2023/09/22 09:52:26;;;;;;;2.37;1.50;;;17.70;99.90;;;;;;5035280;28;20425;-74
2023/09/22 09:55:02;;;;;;;3.00;1.80;;;17.60;99.90;;;;;;5040201;28;20785;-73
2023/09/22 09:57:30;;;;;;;2.27;1.40;;;17.70;99.90;;;;;;5040767;28;20787;-74
2023/09/22 09:59:57;;;;;;;2.07;1.27;;;17.70;99.90;;;;;;5038109;28;20437;-75
2023/09/22 10:02:24;;;;;;;3.20;1.57;;;17.70;99.90;;;;;;5034174;28;20504;-75
2023/09/22 10:04:50;;;;;;;1.93;1.63;;;17.60;99.90;;;;;;5032368;28;20406;-75
2023/09/22 10:07:16;;;;;;;1.90;1.30;;;17.60;99.90;;;;;;5032638;28;20417;-75
2023/09/22 10:09:42;;;;;;;1.30;1.20;;;17.70;99.90;;;;;;5033109;28;20406;-74
2023/09/22 10:12:08;;;;;;;3.83;2.50;;;17.80;99.90;;;;;;5032402;28;20193;-74
2023/09/22 10:14:51;;;;;;;3.37;1.90;;;17.80;99.90;;;;;;5032198;28;20419;-73
2023/09/22 10:17:21;;;;;;;3.57;1.70;;;17.70;99.90;;;;;;5032443;28;20447;-75
2023/09/22 10:19:48;;;;;;;1.33;1.23;;;17.90;99.90;;;;;;5032095;28;20809;-74
2023/09/22 10:22:13;;;;;;;3.20;1.73;;;18.00;99.90;;;;;;5031444;28;20451;-73
2023/09/22 10:24:40;;;;;;;2.13;1.30;;;17.90;99.90;;;;;;5032154;28;20418;-73
2023/09/22 10:27:08;;;;;;;1.93;1.60;;;17.90;99.90;;;;;;5032627;28;20712;-74
2023/09/22 10:29:34;;;;;;;1.70;1.60;;;17.90;99.90;;;;;;5025406;28;20851;-74
2023/09/22 10:32:23;;;;;;;5.13;1.57;;;17.80;99.90;;;;;;5031416;28;20429;-73
2023/09/22 10:34:55;;;;;;;2.27;2.07;;;17.90;99.90;;;;;;5029743;28;20413;-73
2023/09/22 10:37:26;;;;;;;2.17;1.60;;;18.00;99.90;;;;;;5031984;28;20471;-73
2023/09/22 10:39:55;;;;;;;1.47;1.37;;;18.10;99.90;;;;;;5030407;28;20447;-74
2023/09/22 10:42:22;;;;;;;2.30;1.43;;;18.10;99.90;;;;;;5031742;28;20626;-75
2023/09/22 10:44:56;;;;;;;2.53;1.40;;;18.00;99.90;;;;;;5031928;28;20426;-75
2023/09/22 10:47:22;;;;;;;1.70;1.60;;;18.10;99.90;;;;;;5024672;28;20401;-73
2023/09/22 10:49:48;;;;;;;2.10;1.60;;;18.00;99.90;;;;;;5031831;28;20794;-71
2023/09/22 10:52:18;;;;;;;2.23;1.90;;;18.10;99.90;;;;;;5031441;28;20418;-74
2023/09/22 10:54:46;;;;;;;1.87;1.60;;;18.20;99.90;;;;;;5031403;28;20421;-75
2023/09/22 10:57:27;;;;;;;2.03;1.33;;;18.00;99.90;;;;;;5031624;28;20920;-74
2023/09/22 10:59:55;;;;;;;2.00;1.70;;;18.10;99.90;;;;;;5034107;28;20485;-74
2023/09/22 11:02:27;;;;;;;2.23;1.60;;;18.00;99.90;;;;;;5031077;28;20540;-73
2023/09/22 11:04:55;;;;;;;4.67;1.30;;;18.00;99.90;;;;;;5030052;28;20462;-74
2023/09/22 11:07:33;;;;;;;1.90;1.20;;;18.00;99.90;;;;;;5026508;28;20860;-74
2023/09/22 11:10:00;;;;;;;2.40;1.30;;;18.00;99.90;;;;;;5026695;28;20476;-74
2023/09/22 11:12:29;;;;;;;2.00;1.70;;;18.00;99.90;;;;;;5028400;28;20470;-74
2023/09/22 11:15:00;;;;;;;2.90;1.60;;;18.00;99.90;;;;;;5027621;28;20573;-74
2023/09/22 11:17:41;;;;;;;2.60;1.60;;;18.10;99.90;;;;;;5025702;28;20428;-74
2023/09/22 11:20:15;;;;;;;1.50;1.40;;;18.00;99.90;;;;;;5029950;28;20458;-72
2023/09/22 11:22:42;;;;;;;2.93;1.30;;;17.90;99.90;;;;;;5028123;28;20486;-72
2023/09/22 11:25:11;;;;;;;4.17;1.20;;;17.90;99.90;;;;;;5030598;28;20921;-73
2023/09/22 11:27:48;;;;;;;2.93;1.90;;;17.90;99.90;;;;;;5027381;28;20439;-72
2023/09/22 11:30:20;;;;;;;3.23;1.90;;;18.00;99.90;;;;;;5030157;28;20454;-73
2023/09/22 11:32:47;;;;;;;3.10;1.90;;;18.00;99.90;;;;;;5028685;28;20437;-72
2023/09/22 11:35:39;;;;;;;1.70;1.50;;;17.90;99.90;;;;;;5034232;28;20426;-74
2023/09/22 11:38:23;;;;;;;3.80;1.70;;;17.90;99.90;;;;;;5027008;28;20436;-73
2023/09/22 11:41:09;;;;;;;3.30;1.67;;;18.00;99.90;;;;;;5030496;28;20512;-73
2023/09/22 11:43:38;;;;;;;1.93;1.60;;;18.00;99.90;;;;;;5025377;28;20417;-74
2023/09/22 11:46:13;;;;;;;3.73;1.70;;;18.10;99.90;;;;;;5029598;28;20431;-73
2023/09/22 11:48:59;;;;;;;6.80;2.20;;;18.10;99.90;;;;;;5025060;28;20508;-72
2023/09/22 11:51:45;;;;;;;1.40;1.30;;;18.20;99.90;;;;;;5031468;28;20453;-72
2023/09/22 11:54:12;;;;;;;5.20;1.73;;;18.20;99.90;;;;;;5028477;28;20465;-73
2023/09/22 11:56:39;;;;;;;4.33;2.20;;;18.30;99.90;;;;;;5030783;28;20443;-72
2023/09/22 11:59:13;;;;;;;2.17;1.97;;;18.30;99.90;;;;;;5030660;28;20414;-72
2023/09/22 12:01:41;;;;;;;2.13;1.67;;;18.20;99.90;;;;;;5024122;28;20474;-72
2023/09/22 12:04:10;;;;;;;5.17;2.20;;;18.20;99.90;;;;;;5030375;28;20423;-72
2023/09/22 12:06:37;;;;;;;2.00;1.80;;;18.20;99.90;;;;;;5032608;28;20420;-73
2023/09/22 12:09:04;;;;;;;2.00;1.27;;;18.20;99.90;;;;;;5034500;28;20514;-73
2023/09/22 12:11:29;;;;;;;2.30;1.83;;;18.40;99.90;;;;;;5034677;28;20545;-74
2023/09/22 12:13:55;;;;;;;1.50;1.40;;;18.50;99.90;;;;;;5034381;28;20639;-74
2023/09/22 12:16:21;;;;;;;2.20;2.00;;;18.30;99.90;;;;;;5034384;28;20184;-73
2023/09/22 12:18:48;;;;;;;2.40;2.20;;;18.30;99.90;;;;;;5033338;28;20185;-73
2023/09/22 12:21:14;;;;;;;2.87;2.07;;;18.30;99.90;;;;;;5029607;28;20558;-73
2023/09/22 12:23:40;;;;;;;2.97;2.67;;;18.30;99.90;;;;;;5032345;28;20444;-73
2023/09/22 12:26:06;;;;;;;2.27;1.63;;;18.40;99.90;;;;;;5030878;28;20438;-74
2023/09/22 12:28:32;;;;;;;5.53;2.10;;;18.20;99.90;;;;;;5035002;28;20448;-73
2023/09/22 12:30:58;;;;;;;3.57;1.77;;;18.20;99.90;;;;;;5031619;28;20545;-73
2023/09/22 12:33:23;;;;;;;2.27;2.00;;;18.40;99.90;;;;;;5037336;28;20184;-74
2023/09/22 12:35:54;;;;;;;2.43;1.43;;;18.40;99.90;;;;;;5030676;28;20189;-73
2023/09/22 12:38:22;;;;;;;1.63;1.43;;;18.40;99.90;;;;;;5037526;28;20169;-74
2023/09/22 12:40:47;;;;;;;1.60;1.50;;;18.40;99.90;;;;;;5034539;28;20464;-72
2023/09/22 12:43:14;;;;;;;1.83;1.30;;;18.40;99.90;;;;;;5034050;28;20426;-74
2023/09/22 12:45:40;;;;;;;2.43;1.87;;;18.50;99.90;;;;;;5033413;28;20220;-74
2023/09/22 12:48:05;;;;;;;1.60;1.50;;;18.40;99.90;;;;;;5034147;28;20426;-76
2023/09/22 12:50:31;;;;;;;4.00;1.50;;;18.10;99.90;;;;;;5039052;28;20983;-74